sensor_id;sensor_type;location;lat;lon;timestamp;P1;durP1;ratioP1;P2;durP2;ratioP2
34988;SDS011;21192;40.182;44.516;2023-01-25T00:01:23;50.25;;;24.17;;
34988;SDS011;21192;40.182;44.516;2023-01-25T00:03:49;53.33;;;25.80;;
34988;SDS011;21192;40.182;44.516;2023-01-25T00:06:15;54.30;;;24.15;;
34988;SDS011;21192;40.182;44.516;2023-01-25T00:08:40;54.05;;;24.48;;
34988;SDS011;21192;40.182;44.516;2023-01-25T00:11:06;49.47;;;24.67;;
34988;SDS011;21192;40.182;44.516;2023-01-25T00:13:32;51.70;;;23.67;;
34988;SDS011;21192;40.182;44.516;2023-01-25T00:16:01;53.95;;;24.35;;
34988;SDS011;21192;40.182;44.516;2023-01-25T00:18:28;44.88;;;22.50;;
34988;SDS011;21192;40.182;44.516;2023-01-25T00:20:54;49.20;;;22.88;;
34988;SDS011;21192;40.182;44.516;2023-01-25T00:23:20;44.25;;;22.27;;
34988;SDS011;21192;40.182;44.516;2023-01-25T00:25:46;50.00;;;22.67;;
34988;SDS011;21192;40.182;44.516;2023-01-25T00:28:11;44.25;;;23.38;;
34988;SDS011;21192;40.182;44.516;2023-01-25T00:30:38;48.42;;;22.50;;
34988;SDS011;21192;40.182;44.516;2023-01-25T00:35:44;49.78;;;23.63;;
34988;SDS011;21192;40.182;44.516;2023-01-25T00:38:33;44.78;;;22.27;;
34988;SDS011;21192;40.182;44.516;2023-01-25T00:40:59;42.53;;;21.08;;
34988;SDS011;21192;40.182;44.516;2023-01-25T00:43:25;47.00;;;22.08;;
34988;SDS011;21192;40.182;44.516;2023-01-25T00:45:51;48.80;;;23.30;;
34988;SDS011;21192;40.182;44.516;2023-01-25T00:48:17;40.33;;;21.10;;
34988;SDS011;21192;40.182;44.516;2023-01-25T00:50:42;46.55;;;22.92;;
34988;SDS011;21192;40.182;44.516;2023-01-25T00:53:08;48.28;;;22.45;;
34988;SDS011;21192;40.182;44.516;2023-01-25T00:55:34;48.72;;;21.92;;
34988;SDS011;21192;40.182;44.516;2023-01-25T00:58:00;46.55;;;22.35;;
34988;SDS011;21192;40.182;44.516;2023-01-25T01:00:25;49.38;;;23.98;;
34988;SDS011;21192;40.182;44.516;2023-01-25T01:02:51;47.85;;;23.35;;
34988;SDS011;21192;40.182;44.516;2023-01-25T01:05:17;49.67;;;25.52;;
34988;SDS011;21192;40.182;44.516;2023-01-25T01:07:43;51.40;;;22.65;;
34988;SDS011;21192;40.182;44.516;2023-01-25T01:10:09;46.40;;;23.75;;
34988;SDS011;21192;40.182;44.516;2023-01-25T01:12:35;42.60;;;21.45;;
34988;SDS011;21192;40.182;44.516;2023-01-25T01:15:00;43.85;;;22.35;;
34988;SDS011;21192;40.182;44.516;2023-01-25T01:17:26;41.10;;;21.00;;
34988;SDS011;21192;40.182;44.516;2023-01-25T01:19:52;47.83;;;20.90;;
34988;SDS011;21192;40.182;44.516;2023-01-25T01:22:18;46.75;;;21.10;;
34988;SDS011;21192;40.182;44.516;2023-01-25T01:24:46;44.00;;;21.33;;
34988;SDS011;21192;40.182;44.516;2023-01-25T01:27:12;45.22;;;22.35;;
34988;SDS011;21192;40.182;44.516;2023-01-25T01:29:38;47.65;;;22.73;;
34988;SDS011;21192;40.182;44.516;2023-01-25T01:32:04;50.60;;;23.42;;
34988;SDS011;21192;40.182;44.516;2023-01-25T01:34:30;48.97;;;22.92;;
34988;SDS011;21192;40.182;44.516;2023-01-25T01:36:56;51.05;;;23.60;;
34988;SDS011;21192;40.182;44.516;2023-01-25T01:39:22;49.28;;;23.73;;
34988;SDS011;21192;40.182;44.516;2023-01-25T01:41:48;51.65;;;24.15;;
34988;SDS011;21192;40.182;44.516;2023-01-25T01:44:15;49.83;;;23.42;;
34988;SDS011;21192;40.182;44.516;2023-01-25T01:46:50;49.67;;;23.38;;
34988;SDS011;21192;40.182;44.516;2023-01-25T01:49:23;50.60;;;23.50;;
34988;SDS011;21192;40.182;44.516;2023-01-25T01:54:24;44.22;;;22.40;;
34988;SDS011;21192;40.182;44.516;2023-01-25T01:56:57;45.88;;;22.85;;
34988;SDS011;21192;40.182;44.516;2023-01-25T01:59:25;51.72;;;23.33;;
34988;SDS011;21192;40.182;44.516;2023-01-25T02:01:57;46.67;;;22.50;;
34988;SDS011;21192;40.182;44.516;2023-01-25T02:04:23;46.80;;;22.50;;
34988;SDS011;21192;40.182;44.516;2023-01-25T02:07:00;50.05;;;23.17;;
34988;SDS011;21192;40.182;44.516;2023-01-25T02:09:32;45.75;;;22.95;;
34988;SDS011;21192;40.182;44.516;2023-01-25T02:12:00;50.42;;;23.40;;
34988;SDS011;21192;40.182;44.516;2023-01-25T02:14:27;49.63;;;22.95;;
34988;SDS011;21192;40.182;44.516;2023-01-25T02:16:54;45.58;;;23.85;;
34988;SDS011;21192;40.182;44.516;2023-01-25T02:19:24;48.10;;;23.77;;
34988;SDS011;21192;40.182;44.516;2023-01-25T02:22:08;53.30;;;23.17;;
34988;SDS011;21192;40.182;44.516;2023-01-25T02:24:41;49.30;;;22.83;;
34988;SDS011;21192;40.182;44.516;2023-01-25T02:27:14;56.10;;;24.35;;
34988;SDS011;21192;40.182;44.516;2023-01-25T02:29:41;53.22;;;23.10;;
34988;SDS011;21192;40.182;44.516;2023-01-25T02:32:09;49.35;;;22.55;;
34988;SDS011;21192;40.182;44.516;2023-01-25T02:34:34;52.03;;;22.40;;
34988;SDS011;21192;40.182;44.516;2023-01-25T02:37:00;53.45;;;25.33;;
34988;SDS011;21192;40.182;44.516;2023-01-25T02:39:26;49.90;;;23.55;;
34988;SDS011;21192;40.182;44.516;2023-01-25T02:41:53;49.72;;;25.15;;
34988;SDS011;21192;40.182;44.516;2023-01-25T02:44:20;51.63;;;22.98;;
34988;SDS011;21192;40.182;44.516;2023-01-25T02:46:56;51.42;;;23.55;;
34988;SDS011;21192;40.182;44.516;2023-01-25T02:49:22;45.53;;;23.08;;
34988;SDS011;21192;40.182;44.516;2023-01-25T02:51:49;55.70;;;23.65;;
34988;SDS011;21192;40.182;44.516;2023-01-25T02:54:20;50.50;;;24.17;;
34988;SDS011;21192;40.182;44.516;2023-01-25T02:56:46;48.78;;;24.08;;
34988;SDS011;21192;40.182;44.516;2023-01-25T02:59:12;51.97;;;23.05;;
34988;SDS011;21192;40.182;44.516;2023-01-25T03:01:39;47.13;;;22.70;;
34988;SDS011;21192;40.182;44.516;2023-01-25T03:04:06;45.15;;;23.10;;
34988;SDS011;21192;40.182;44.516;2023-01-25T03:06:32;47.28;;;24.23;;
34988;SDS011;21192;40.182;44.516;2023-01-25T03:08:59;50.72;;;24.35;;
34988;SDS011;21192;40.182;44.516;2023-01-25T03:11:25;50.55;;;25.10;;
34988;SDS011;21192;40.182;44.516;2023-01-25T03:13:51;51.47;;;25.63;;
34988;SDS011;21192;40.182;44.516;2023-01-25T03:16:17;69.72;;;31.83;;
34988;SDS011;21192;40.182;44.516;2023-01-25T03:18:43;71.90;;;32.67;;
34988;SDS011;21192;40.182;44.516;2023-01-25T03:21:16;69.70;;;33.03;;
34988;SDS011;21192;40.182;44.516;2023-01-25T03:23:43;78.00;;;34.83;;
34988;SDS011;21192;40.182;44.516;2023-01-25T03:26:11;76.63;;;35.33;;
34988;SDS011;21192;40.182;44.516;2023-01-25T03:28:39;70.65;;;36.15;;
34988;SDS011;21192;40.182;44.516;2023-01-25T03:31:07;72.38;;;34.28;;
34988;SDS011;21192;40.182;44.516;2023-01-25T03:33:34;80.15;;;36.45;;
34988;SDS011;21192;40.182;44.516;2023-01-25T03:36:00;78.50;;;36.63;;
34988;SDS011;21192;40.182;44.516;2023-01-25T03:38:26;76.93;;;35.95;;
34988;SDS011;21192;40.182;44.516;2023-01-25T03:40:52;69.95;;;33.00;;
34988;SDS011;21192;40.182;44.516;2023-01-25T03:43:18;72.03;;;35.65;;
34988;SDS011;21192;40.182;44.516;2023-01-25T03:45:45;82.25;;;37.17;;
34988;SDS011;21192;40.182;44.516;2023-01-25T03:48:15;72.50;;;34.88;;
34988;SDS011;21192;40.182;44.516;2023-01-25T03:50:42;83.43;;;36.10;;
34988;SDS011;21192;40.182;44.516;2023-01-25T03:53:17;71.00;;;34.58;;
34988;SDS011;21192;40.182;44.516;2023-01-25T03:55:57;78.05;;;35.63;;
34988;SDS011;21192;40.182;44.516;2023-01-25T03:58:24;65.85;;;31.85;;
34988;SDS011;21192;40.182;44.516;2023-01-25T04:00:52;73.50;;;33.45;;
34988;SDS011;21192;40.182;44.516;2023-01-25T04:03:19;61.22;;;27.23;;
34988;SDS011;21192;40.182;44.516;2023-01-25T04:05:45;61.78;;;27.65;;
34988;SDS011;21192;40.182;44.516;2023-01-25T04:08:12;55.17;;;28.58;;
34988;SDS011;21192;40.182;44.516;2023-01-25T04:10:38;57.38;;;26.65;;
34988;SDS011;21192;40.182;44.516;2023-01-25T04:13:04;55.53;;;25.75;;
34988;SDS011;21192;40.182;44.516;2023-01-25T04:15:30;57.63;;;27.17;;
34988;SDS011;21192;40.182;44.516;2023-01-25T04:17:56;53.10;;;25.73;;
34988;SDS011;21192;40.182;44.516;2023-01-25T04:20:22;57.33;;;25.48;;
34988;SDS011;21192;40.182;44.516;2023-01-25T04:22:48;48.38;;;23.45;;
34988;SDS011;21192;40.182;44.516;2023-01-25T04:25:14;57.83;;;26.88;;
34988;SDS011;21192;40.182;44.516;2023-01-25T04:27:40;50.35;;;25.45;;
34988;SDS011;21192;40.182;44.516;2023-01-25T04:30:06;52.90;;;25.02;;
34988;SDS011;21192;40.182;44.516;2023-01-25T04:32:33;52.85;;;26.33;;
34988;SDS011;21192;40.182;44.516;2023-01-25T04:35:00;58.33;;;25.95;;
34988;SDS011;21192;40.182;44.516;2023-01-25T04:37:26;57.08;;;25.50;;
34988;SDS011;21192;40.182;44.516;2023-01-25T04:39:52;53.50;;;25.83;;
34988;SDS011;21192;40.182;44.516;2023-01-25T04:42:17;59.83;;;25.90;;
34988;SDS011;21192;40.182;44.516;2023-01-25T04:44:44;63.00;;;26.35;;
34988;SDS011;21192;40.182;44.516;2023-01-25T04:47:09;63.88;;;27.60;;
34988;SDS011;21192;40.182;44.516;2023-01-25T04:49:35;55.45;;;27.55;;
34988;SDS011;21192;40.182;44.516;2023-01-25T04:52:01;54.40;;;26.58;;
34988;SDS011;21192;40.182;44.516;2023-01-25T04:54:27;56.40;;;27.77;;
34988;SDS011;21192;40.182;44.516;2023-01-25T04:56:53;56.45;;;28.10;;
34988;SDS011;21192;40.182;44.516;2023-01-25T04:59:18;61.47;;;28.85;;
34988;SDS011;21192;40.182;44.516;2023-01-25T05:01:44;66.80;;;30.38;;
34988;SDS011;21192;40.182;44.516;2023-01-25T05:04:10;64.10;;;30.30;;
34988;SDS011;21192;40.182;44.516;2023-01-25T05:06:36;63.47;;;30.38;;
34988;SDS011;21192;40.182;44.516;2023-01-25T05:09:01;63.00;;;29.92;;
34988;SDS011;21192;40.182;44.516;2023-01-25T05:11:27;62.83;;;31.50;;
34988;SDS011;21192;40.182;44.516;2023-01-25T05:13:53;62.40;;;31.65;;
34988;SDS011;21192;40.182;44.516;2023-01-25T05:16:19;59.47;;;33.35;;
34988;SDS011;21192;40.182;44.516;2023-01-25T05:18:45;61.47;;;34.17;;
34988;SDS011;21192;40.182;44.516;2023-01-25T05:21:11;65.63;;;33.83;;
34988;SDS011;21192;40.182;44.516;2023-01-25T05:23:56;61.67;;;35.53;;
34988;SDS011;21192;40.182;44.516;2023-01-25T05:26:22;65.45;;;34.17;;
34988;SDS011;21192;40.182;44.516;2023-01-25T05:29:08;61.78;;;35.17;;
34988;SDS011;21192;40.182;44.516;2023-01-25T05:31:34;69.18;;;36.85;;
34988;SDS011;21192;40.182;44.516;2023-01-25T05:33:59;66.45;;;34.00;;
34988;SDS011;21192;40.182;44.516;2023-01-25T05:36:25;62.38;;;34.55;;
34988;SDS011;21192;40.182;44.516;2023-01-25T05:38:51;57.15;;;35.10;;
34988;SDS011;21192;40.182;44.516;2023-01-25T05:41:17;66.95;;;35.90;;
34988;SDS011;21192;40.182;44.516;2023-01-25T05:43:46;62.03;;;36.13;;
34988;SDS011;21192;40.182;44.516;2023-01-25T05:46:13;61.88;;;35.67;;
34988;SDS011;21192;40.182;44.516;2023-01-25T05:48:39;62.80;;;35.30;;
34988;SDS011;21192;40.182;44.516;2023-01-25T05:51:05;71.88;;;35.83;;
34988;SDS011;21192;40.182;44.516;2023-01-25T05:53:31;63.92;;;38.63;;
34988;SDS011;21192;40.182;44.516;2023-01-25T05:56:06;65.13;;;39.22;;
34988;SDS011;21192;40.182;44.516;2023-01-25T05:58:32;61.08;;;36.08;;
34988;SDS011;21192;40.182;44.516;2023-01-25T06:00:59;56.95;;;34.90;;
34988;SDS011;21192;40.182;44.516;2023-01-25T06:03:25;56.08;;;36.50;;
34988;SDS011;21192;40.182;44.516;2023-01-25T06:05:58;54.03;;;35.38;;
34988;SDS011;21192;40.182;44.516;2023-01-25T06:08:28;55.90;;;37.78;;
34988;SDS011;21192;40.182;44.516;2023-01-25T06:10:55;77.80;;;47.35;;
34988;SDS011;21192;40.182;44.516;2023-01-25T06:13:21;71.03;;;46.92;;
34988;SDS011;21192;40.182;44.516;2023-01-25T06:15:51;91.85;;;45.60;;
34988;SDS011;21192;40.182;44.516;2023-01-25T06:18:20;84.63;;;45.42;;
34988;SDS011;21192;40.182;44.516;2023-01-25T06:20:48;75.50;;;44.40;;
34988;SDS011;21192;40.182;44.516;2023-01-25T06:23:15;67.40;;;43.70;;
34988;SDS011;21192;40.182;44.516;2023-01-25T06:25:41;64.95;;;38.78;;
34988;SDS011;21192;40.182;44.516;2023-01-25T06:28:07;56.42;;;34.60;;
34988;SDS011;21192;40.182;44.516;2023-01-25T06:30:33;53.38;;;33.50;;
34988;SDS011;21192;40.182;44.516;2023-01-25T06:32:59;51.83;;;33.53;;
34988;SDS011;21192;40.182;44.516;2023-01-25T06:35:25;51.67;;;33.00;;
34988;SDS011;21192;40.182;44.516;2023-01-25T06:37:54;65.97;;;38.72;;
34988;SDS011;21192;40.182;44.516;2023-01-25T06:40:20;64.40;;;42.10;;
34988;SDS011;21192;40.182;44.516;2023-01-25T06:42:46;74.28;;;41.50;;
34988;SDS011;21192;40.182;44.516;2023-01-25T06:45:12;63.85;;;42.42;;
34988;SDS011;21192;40.182;44.516;2023-01-25T06:47:39;69.10;;;41.70;;
34988;SDS011;21192;40.182;44.516;2023-01-25T06:50:05;69.40;;;42.72;;
34988;SDS011;21192;40.182;44.516;2023-01-25T06:52:32;64.80;;;42.53;;
34988;SDS011;21192;40.182;44.516;2023-01-25T06:55:04;73.65;;;42.97;;
34988;SDS011;21192;40.182;44.516;2023-01-25T06:57:32;68.35;;;42.33;;
34988;SDS011;21192;40.182;44.516;2023-01-25T06:59:59;72.30;;;43.63;;
34988;SDS011;21192;40.182;44.516;2023-01-25T07:02:25;67.35;;;42.95;;
34988;SDS011;21192;40.182;44.516;2023-01-25T07:04:51;70.88;;;44.53;;
34988;SDS011;21192;40.182;44.516;2023-01-25T07:07:17;73.57;;;45.75;;
34988;SDS011;21192;40.182;44.516;2023-01-25T07:09:43;76.65;;;46.15;;
34988;SDS011;21192;40.182;44.516;2023-01-25T07:12:08;77.78;;;45.65;;
34988;SDS011;21192;40.182;44.516;2023-01-25T07:14:34;79.38;;;44.63;;
34988;SDS011;21192;40.182;44.516;2023-01-25T07:17:00;82.30;;;46.20;;
34988;SDS011;21192;40.182;44.516;2023-01-25T07:19:26;68.50;;;41.97;;
34988;SDS011;21192;40.182;44.516;2023-01-25T07:21:52;75.20;;;44.25;;
34988;SDS011;21192;40.182;44.516;2023-01-25T07:24:18;80.75;;;44.55;;
34988;SDS011;21192;40.182;44.516;2023-01-25T07:26:44;133.88;;;64.55;;
34988;SDS011;21192;40.182;44.516;2023-01-25T07:29:12;110.13;;;61.15;;
34988;SDS011;21192;40.182;44.516;2023-01-25T07:31:39;114.47;;;62.92;;
34988;SDS011;21192;40.182;44.516;2023-01-25T07:34:07;87.72;;;48.60;;
34988;SDS011;21192;40.182;44.516;2023-01-25T07:36:34;87.97;;;50.58;;
34988;SDS011;21192;40.182;44.516;2023-01-25T07:39:01;88.13;;;48.90;;
34988;SDS011;21192;40.182;44.516;2023-01-25T07:41:27;90.32;;;47.30;;
34988;SDS011;21192;40.182;44.516;2023-01-25T07:43:53;100.22;;;49.65;;
34988;SDS011;21192;40.182;44.516;2023-01-25T07:46:19;88.82;;;50.38;;
34988;SDS011;21192;40.182;44.516;2023-01-25T07:48:46;96.28;;;52.28;;
34988;SDS011;21192;40.182;44.516;2023-01-25T07:51:13;100.22;;;52.47;;
34988;SDS011;21192;40.182;44.516;2023-01-25T07:54:01;98.47;;;52.95;;
34988;SDS011;21192;40.182;44.516;2023-01-25T07:56:29;92.90;;;50.15;;
34988;SDS011;21192;40.182;44.516;2023-01-25T07:59:01;92.28;;;50.38;;
34988;SDS011;21192;40.182;44.516;2023-01-25T08:01:28;98.38;;;51.25;;
34988;SDS011;21192;40.182;44.516;2023-01-25T08:03:58;99.30;;;53.15;;
34988;SDS011;21192;40.182;44.516;2023-01-25T08:06:25;107.38;;;53.35;;
34988;SDS011;21192;40.182;44.516;2023-01-25T08:09:00;106.60;;;51.83;;
34988;SDS011;21192;40.182;44.516;2023-01-25T08:11:29;104.47;;;54.40;;
34988;SDS011;21192;40.182;44.516;2023-01-25T08:13:56;106.55;;;52.53;;
34988;SDS011;21192;40.182;44.516;2023-01-25T08:16:24;113.13;;;54.33;;
34988;SDS011;21192;40.182;44.516;2023-01-25T08:18:55;95.88;;;51.60;;
34988;SDS011;21192;40.182;44.516;2023-01-25T08:21:23;104.53;;;54.35;;
34988;SDS011;21192;40.182;44.516;2023-01-25T08:23:54;100.45;;;52.63;;
34988;SDS011;21192;40.182;44.516;2023-01-25T08:26:21;87.57;;;45.53;;
34988;SDS011;21192;40.182;44.516;2023-01-25T08:28:46;84.57;;;49.13;;
34988;SDS011;21192;40.182;44.516;2023-01-25T08:31:14;102.72;;;53.80;;
34988;SDS011;21192;40.182;44.516;2023-01-25T08:33:40;91.70;;;50.70;;
34988;SDS011;21192;40.182;44.516;2023-01-25T08:36:08;95.75;;;52.88;;
34988;SDS011;21192;40.182;44.516;2023-01-25T08:38:35;93.38;;;49.72;;
34988;SDS011;21192;40.182;44.516;2023-01-25T08:41:05;87.05;;;48.22;;
34988;SDS011;21192;40.182;44.516;2023-01-25T08:43:36;82.95;;;46.25;;
34988;SDS011;21192;40.182;44.516;2023-01-25T08:46:02;87.28;;;46.58;;
34988;SDS011;21192;40.182;44.516;2023-01-25T08:48:28;87.95;;;46.20;;
34988;SDS011;21192;40.182;44.516;2023-01-25T08:50:54;78.93;;;45.38;;
34988;SDS011;21192;40.182;44.516;2023-01-25T08:53:20;79.68;;;44.67;;
34988;SDS011;21192;40.182;44.516;2023-01-25T08:55:47;85.63;;;47.08;;
34988;SDS011;21192;40.182;44.516;2023-01-25T08:58:13;87.07;;;46.83;;
34988;SDS011;21192;40.182;44.516;2023-01-25T09:00:41;84.45;;;46.78;;
34988;SDS011;21192;40.182;44.516;2023-01-25T09:03:08;81.47;;;44.33;;
34988;SDS011;21192;40.182;44.516;2023-01-25T09:05:36;77.50;;;43.33;;
34988;SDS011;21192;40.182;44.516;2023-01-25T09:08:03;68.68;;;40.25;;
34988;SDS011;21192;40.182;44.516;2023-01-25T09:10:31;73.03;;;38.75;;
34988;SDS011;21192;40.182;44.516;2023-01-25T09:12:57;69.00;;;40.00;;
34988;SDS011;21192;40.182;44.516;2023-01-25T09:15:22;65.55;;;36.95;;
34988;SDS011;21192;40.182;44.516;2023-01-25T09:17:55;73.68;;;40.83;;
34988;SDS011;21192;40.182;44.516;2023-01-25T09:20:21;71.63;;;39.38;;
34988;SDS011;21192;40.182;44.516;2023-01-25T09:22:48;76.95;;;39.85;;
34988;SDS011;21192;40.182;44.516;2023-01-25T09:25:14;75.85;;;41.30;;
34988;SDS011;21192;40.182;44.516;2023-01-25T09:27:40;66.35;;;36.75;;
34988;SDS011;21192;40.182;44.516;2023-01-25T09:30:07;72.47;;;40.22;;
34988;SDS011;21192;40.182;44.516;2023-01-25T09:32:35;72.22;;;40.08;;
34988;SDS011;21192;40.182;44.516;2023-01-25T09:35:01;65.10;;;35.58;;
34988;SDS011;21192;40.182;44.516;2023-01-25T09:37:28;62.42;;;34.05;;
34988;SDS011;21192;40.182;44.516;2023-01-25T09:39:54;55.75;;;33.42;;
34988;SDS011;21192;40.182;44.516;2023-01-25T09:45:02;56.28;;;32.55;;
34988;SDS011;21192;40.182;44.516;2023-01-25T09:50:32;57.45;;;32.17;;
34988;SDS011;21192;40.182;44.516;2023-01-25T09:56:03;57.38;;;31.27;;
34988;SDS011;21192;40.182;44.516;2023-01-25T09:58:49;54.17;;;29.25;;
34988;SDS011;21192;40.182;44.516;2023-01-25T10:01:23;54.38;;;31.20;;
34988;SDS011;21192;40.182;44.516;2023-01-25T10:06:48;57.78;;;30.02;;
34988;SDS011;21192;40.182;44.516;2023-01-25T10:09:26;56.78;;;31.35;;
34988;SDS011;21192;40.182;44.516;2023-01-25T10:14:44;53.97;;;30.63;;
34988;SDS011;21192;40.182;44.516;2023-01-25T10:22:35;57.67;;;33.55;;
34988;SDS011;21192;40.182;44.516;2023-01-25T10:25:23;58.22;;;33.08;;
34988;SDS011;21192;40.182;44.516;2023-01-25T10:28:04;68.90;;;34.20;;
34988;SDS011;21192;40.182;44.516;2023-01-25T10:30:55;63.63;;;32.65;;
34988;SDS011;21192;40.182;44.516;2023-01-25T10:33:26;58.45;;;32.30;;
34988;SDS011;21192;40.182;44.516;2023-01-25T10:35:54;63.10;;;33.33;;
34988;SDS011;21192;40.182;44.516;2023-01-25T10:38:27;61.72;;;33.53;;
34988;SDS011;21192;40.182;44.516;2023-01-25T10:41:09;60.85;;;33.08;;
34988;SDS011;21192;40.182;44.516;2023-01-25T10:43:42;61.83;;;33.35;;
34988;SDS011;21192;40.182;44.516;2023-01-25T10:46:26;61.03;;;33.13;;
34988;SDS011;21192;40.182;44.516;2023-01-25T10:48:52;66.10;;;35.63;;
34988;SDS011;21192;40.182;44.516;2023-01-25T10:51:32;66.28;;;34.88;;
34988;SDS011;21192;40.182;44.516;2023-01-25T10:54:03;75.80;;;36.40;;
34988;SDS011;21192;40.182;44.516;2023-01-25T10:56:31;76.18;;;39.08;;
34988;SDS011;21192;40.182;44.516;2023-01-25T10:59:07;74.32;;;37.03;;
34988;SDS011;21192;40.182;44.516;2023-01-25T11:01:40;68.95;;;35.88;;
34988;SDS011;21192;40.182;44.516;2023-01-25T11:04:20;63.67;;;35.67;;
34988;SDS011;21192;40.182;44.516;2023-01-25T11:07:01;63.40;;;35.25;;
34988;SDS011;21192;40.182;44.516;2023-01-25T11:11:57;64.50;;;34.45;;
34988;SDS011;21192;40.182;44.516;2023-01-25T11:14:29;66.40;;;35.67;;
34988;SDS011;21192;40.182;44.516;2023-01-25T11:16:57;64.93;;;36.50;;
34988;SDS011;21192;40.182;44.516;2023-01-25T11:19:32;66.65;;;35.22;;
34988;SDS011;21192;40.182;44.516;2023-01-25T11:22:24;62.97;;;35.53;;
34988;SDS011;21192;40.182;44.516;2023-01-25T11:24:50;65.65;;;35.13;;
34988;SDS011;21192;40.182;44.516;2023-01-25T11:27:23;63.40;;;36.55;;
34988;SDS011;21192;40.182;44.516;2023-01-25T11:30:13;70.07;;;37.28;;
34988;SDS011;21192;40.182;44.516;2023-01-25T11:32:42;68.18;;;36.13;;
34988;SDS011;21192;40.182;44.516;2023-01-25T11:35:15;63.00;;;37.33;;
34988;SDS011;21192;40.182;44.516;2023-01-25T11:48:56;62.08;;;35.90;;
34988;SDS011;21192;40.182;44.516;2023-01-25T12:02:30;75.97;;;37.75;;
34988;SDS011;21192;40.182;44.516;2023-01-25T12:07:59;72.50;;;37.95;;
34988;SDS011;21192;40.182;44.516;2023-01-25T12:10:38;67.82;;;37.28;;
34988;SDS011;21192;40.182;44.516;2023-01-25T12:13:23;68.47;;;36.83;;
34988;SDS011;21192;40.182;44.516;2023-01-25T12:18:48;77.78;;;39.60;;
34988;SDS011;21192;40.182;44.516;2023-01-25T12:27:30;73.93;;;37.67;;
34988;SDS011;21192;40.182;44.516;2023-01-25T12:32:53;74.82;;;36.45;;
34988;SDS011;21192;40.182;44.516;2023-01-25T12:38:02;73.28;;;39.42;;
34988;SDS011;21192;40.182;44.516;2023-01-25T12:40:43;77.07;;;39.83;;
34988;SDS011;21192;40.182;44.516;2023-01-25T12:43:20;69.53;;;37.55;;
34988;SDS011;21192;40.182;44.516;2023-01-25T12:45:57;78.10;;;39.45;;
34988;SDS011;21192;40.182;44.516;2023-01-25T12:48:37;101.47;;;42.80;;
34988;SDS011;21192;40.182;44.516;2023-01-25T12:51:07;66.32;;;37.53;;
34988;SDS011;21192;40.182;44.516;2023-01-25T12:53:44;70.70;;;37.10;;
34988;SDS011;21192;40.182;44.516;2023-01-25T13:01:50;78.45;;;38.72;;
34988;SDS011;21192;40.182;44.516;2023-01-25T13:12:08;68.00;;;35.25;;
34988;SDS011;21192;40.182;44.516;2023-01-25T13:14:39;70.70;;;36.05;;
34988;SDS011;21192;40.182;44.516;2023-01-25T13:17:09;106.20;;;53.60;;
34988;SDS011;21192;40.182;44.516;2023-01-25T13:20:03;80.00;;;42.45;;
34988;SDS011;21192;40.182;44.516;2023-01-25T13:23:04;80.72;;;38.40;;
34988;SDS011;21192;40.182;44.516;2023-01-25T13:25:49;76.82;;;37.75;;
34988;SDS011;21192;40.182;44.516;2023-01-25T13:28:39;70.15;;;38.38;;
34988;SDS011;21192;40.182;44.516;2023-01-25T13:31:06;65.43;;;36.40;;
34988;SDS011;21192;40.182;44.516;2023-01-25T13:33:33;83.45;;;38.83;;
34988;SDS011;21192;40.182;44.516;2023-01-25T13:42:38;78.40;;;37.90;;
34988;SDS011;21192;40.182;44.516;2023-01-25T13:44:48;80.53;;;37.72;;
34988;SDS011;21192;40.182;44.516;2023-01-25T13:47:37;78.10;;;38.17;;
34988;SDS011;21192;40.182;44.516;2023-01-25T13:50:08;82.80;;;37.85;;
34988;SDS011;21192;40.182;44.516;2023-01-25T13:52:38;73.55;;;36.30;;
34988;SDS011;21192;40.182;44.516;2023-01-25T13:55:19;74.25;;;37.28;;
34988;SDS011;21192;40.182;44.516;2023-01-25T13:57:45;83.50;;;39.53;;
34988;SDS011;21192;40.182;44.516;2023-01-25T14:00:14;78.53;;;38.38;;
34988;SDS011;21192;40.182;44.516;2023-01-25T14:02:41;73.65;;;37.45;;
34988;SDS011;21192;40.182;44.516;2023-01-25T14:05:19;73.13;;;36.35;;
34988;SDS011;21192;40.182;44.516;2023-01-25T14:07:51;75.93;;;35.10;;
34988;SDS011;21192;40.182;44.516;2023-01-25T14:10:23;80.97;;;36.35;;
34988;SDS011;21192;40.182;44.516;2023-01-25T14:12:52;73.50;;;35.05;;
34988;SDS011;21192;40.182;44.516;2023-01-25T14:15:23;75.45;;;37.03;;
34988;SDS011;21192;40.182;44.516;2023-01-25T14:20:40;75.30;;;37.00;;
34988;SDS011;21192;40.182;44.516;2023-01-25T14:23:26;76.78;;;38.10;;
34988;SDS011;21192;40.182;44.516;2023-01-25T14:25:54;84.15;;;41.05;;
34988;SDS011;21192;40.182;44.516;2023-01-25T14:28:23;79.28;;;39.25;;
34988;SDS011;21192;40.182;44.516;2023-01-25T14:30:54;86.85;;;40.55;;
34988;SDS011;21192;40.182;44.516;2023-01-25T14:33:29;81.05;;;41.75;;
34988;SDS011;21192;40.182;44.516;2023-01-25T14:36:15;83.20;;;41.28;;
34988;SDS011;21192;40.182;44.516;2023-01-25T14:38:41;78.03;;;39.40;;
34988;SDS011;21192;40.182;44.516;2023-01-25T14:43:52;79.75;;;41.50;;
34988;SDS011;21192;40.182;44.516;2023-01-25T14:51:44;92.55;;;47.72;;
34988;SDS011;21192;40.182;44.516;2023-01-25T14:54:19;87.57;;;46.40;;
34988;SDS011;21192;40.182;44.516;2023-01-25T14:57:01;82.90;;;42.40;;
34988;SDS011;21192;40.182;44.516;2023-01-25T14:59:40;83.78;;;41.70;;
34988;SDS011;21192;40.182;44.516;2023-01-25T15:02:37;83.95;;;42.50;;
34988;SDS011;21192;40.182;44.516;2023-01-25T15:05:21;73.40;;;37.45;;
34988;SDS011;21192;40.182;44.516;2023-01-25T15:07:54;71.80;;;39.35;;
34988;SDS011;21192;40.182;44.516;2023-01-25T15:10:28;79.38;;;39.47;;
34988;SDS011;21192;40.182;44.516;2023-01-25T15:12:57;73.97;;;37.90;;
34988;SDS011;21192;40.182;44.516;2023-01-25T15:15:35;83.63;;;42.15;;
34988;SDS011;21192;40.182;44.516;2023-01-25T15:23:47;71.05;;;34.20;;
34988;SDS011;21192;40.182;44.516;2023-01-25T15:26:30;71.93;;;36.75;;
34988;SDS011;21192;40.182;44.516;2023-01-25T15:28:58;68.75;;;34.22;;
34988;SDS011;21192;40.182;44.516;2023-01-25T15:31:29;65.28;;;35.00;;
34988;SDS011;21192;40.182;44.516;2023-01-25T15:34:01;75.05;;;38.47;;
34988;SDS011;21192;40.182;44.516;2023-01-25T15:36:28;76.20;;;39.58;;
34988;SDS011;21192;40.182;44.516;2023-01-25T15:38:55;84.82;;;40.40;;
34988;SDS011;21192;40.182;44.516;2023-01-25T15:41:21;89.78;;;45.90;;
34988;SDS011;21192;40.182;44.516;2023-01-25T15:43:47;99.13;;;49.92;;
34988;SDS011;21192;40.182;44.516;2023-01-25T15:46:15;97.35;;;47.85;;
34988;SDS011;21192;40.182;44.516;2023-01-25T15:48:45;89.65;;;47.70;;
34988;SDS011;21192;40.182;44.516;2023-01-25T15:51:12;80.05;;;44.72;;
34988;SDS011;21192;40.182;44.516;2023-01-25T15:53:38;84.68;;;45.58;;
34988;SDS011;21192;40.182;44.516;2023-01-25T15:56:23;86.82;;;46.58;;
34988;SDS011;21192;40.182;44.516;2023-01-25T15:58:53;93.53;;;49.03;;
34988;SDS011;21192;40.182;44.516;2023-01-25T16:01:22;96.50;;;49.28;;
34988;SDS011;21192;40.182;44.516;2023-01-25T16:03:51;107.47;;;52.35;;
34988;SDS011;21192;40.182;44.516;2023-01-25T16:09:12;97.70;;;50.55;;